Time;durP1;ratioP1;P1;durP2;ratioP2;P2;SDS_P1;SDS_P2;PMS_P1;PMS_P2;Temp;Humidity;BMP_temperature;BMP_pressure;BME280_temperature;BME280_humidity;BME280_pressure;Samples;Min_cycle;Max_cycle;Signal;HPM_P1;HPM_P2
2022/03/12 00:00:50;;;;;;;22.20;12.23;;;8.70;86.30;;;;;;4994289;28;20025;-87
2022/03/12 00:03:16;;;;;;;22.83;11.40;;;8.60;86.30;;;;;;4976816;28;20034;-87
2022/03/12 00:05:52;;;;;;;21.08;12.27;;;8.60;86.30;;;;;;4994192;28;20029;-87
2022/03/12 00:08:20;;;;;;;16.75;11.43;;;8.60;86.40;;;;;;4994210;28;20022;-87
2022/03/12 00:10:48;;;;;;;22.35;12.27;;;8.60;86.50;;;;;;4976533;28;20026;-86
2022/03/12 00:13:13;;;;;;;20.92;12.65;;;8.60;86.50;;;;;;4994064;28;20049;-87
2022/03/12 00:15:39;;;;;;;20.42;12.27;;;8.60;86.50;;;;;;4976639;28;20030;-87
2022/03/12 00:18:06;;;;;;;22.02;12.18;;;8.60;86.50;;;;;;4976442;28;20065;-87
2022/03/12 00:20:33;;;;;;;25.38;11.90;;;8.50;86.50;;;;;;4976388;28;20113;-87
2022/03/12 00:22:59;;;;;;;18.23;11.77;;;8.60;86.70;;;;;;4976426;28;20058;-87
2022/03/12 00:25:26;;;;;;;20.73;12.13;;;8.60;87.50;;;;;;4994240;28;20022;-87
2022/03/12 00:27:52;;;;;;;20.98;11.38;;;8.60;86.70;;;;;;4976498;28;20077;-87
2022/03/12 00:30:24;;;;;;;21.60;12.20;;;8.50;86.70;;;;;;4976410;28;20548;-86
2022/03/12 00:32:51;;;;;;;18.67;11.75;;;8.60;86.80;;;;;;4976522;28;20026;-87
2022/03/12 00:35:17;;;;;;;20.17;11.70;;;8.60;86.90;;;;;;4976408;28;20022;-87
2022/03/12 00:37:44;;;;;;;21.73;11.35;;;8.50;86.70;;;;;;4976388;28;20026;-87
2022/03/12 00:40:10;;;;;;;19.45;11.60;;;8.50;86.80;;;;;;4976524;28;20041;-87
2022/03/12 00:42:36;;;;;;;18.13;11.98;;;8.50;86.80;;;;;;4976196;28;20034;-87
2022/03/12 00:45:02;;;;;;;19.30;12.95;;;8.50;86.80;;;;;;4976138;28;20026;-87
2022/03/12 00:47:28;;;;;;;18.85;12.65;;;8.50;87.60;;;;;;4993978;28;20076;-87
2022/03/12 00:49:54;;;;;;;18.48;12.27;;;8.50;86.90;;;;;;4980343;28;20031;-87
2022/03/12 00:52:20;;;;;;;22.40;12.88;;;8.50;86.90;;;;;;4980341;28;20032;-87
2022/03/12 00:54:46;;;;;;;18.45;12.18;;;8.50;87.00;;;;;;4997786;28;20423;-87
2022/03/12 00:57:13;;;;;;;19.60;12.52;;;8.50;87.00;;;;;;4980253;28;20150;-87
2022/03/12 00:59:42;;;;;;;20.15;12.55;;;8.40;87.00;;;;;;4997703;28;20025;-87
2022/03/12 01:02:15;;;;;;;19.05;12.40;;;8.50;87.10;;;;;;4980002;28;20022;-87
2022/03/12 01:04:41;;;;;;;19.08;12.27;;;8.40;87.10;;;;;;4980063;28;20026;-86
2022/03/12 01:07:09;;;;;;;20.38;12.18;;;8.40;87.10;;;;;;4979965;28;20027;-87
2022/03/12 01:09:36;;;;;;;17.85;11.75;;;8.40;87.10;;;;;;4979989;28;20050;-87
2022/03/12 01:12:02;;;;;;;19.05;11.82;;;8.40;87.20;;;;;;4979928;28;20390;-87
2022/03/12 01:14:29;;;;;;;18.52;11.35;;;8.40;87.30;;;;;;4980136;28;20505;-87
2022/03/12 01:16:58;;;;;;;22.42;12.48;;;8.40;87.30;;;;;;4997495;28;20029;-87
2022/03/12 01:19:24;;;;;;;16.60;11.73;;;8.40;87.40;;;;;;4979484;28;20050;-87
2022/03/12 01:21:50;;;;;;;19.95;12.35;;;8.40;87.40;;;;;;4997008;28;20030;-87
2022/03/12 01:24:16;;;;;;;16.55;11.07;;;8.40;87.40;;;;;;4997407;28;20019;-87
2022/03/12 01:26:42;;;;;;;17.02;11.57;;;8.30;87.40;;;;;;4979561;28;20026;-87
2022/03/12 01:29:07;;;;;;;20.65;11.88;;;8.30;87.50;;;;;;4979641;28;20018;-87
2022/03/12 01:31:35;;;;;;;19.52;11.82;;;8.30;87.50;;;;;;4979583;28;20489;-87
2022/03/12 01:34:01;;;;;;;19.17;11.07;;;8.30;87.50;;;;;;4979734;28;20026;-87
2022/03/12 01:36:27;;;;;;;16.58;10.73;;;8.30;87.60;;;;;;4996943;28;20030;-87
2022/03/12 01:38:55;;;;;;;19.50;11.90;;;8.30;87.60;;;;;;4996832;28;20033;-87
2022/03/12 01:41:25;;;;;;;19.52;11.65;;;8.30;87.70;;;;;;4979373;28;20034;-87
2022/03/12 01:43:53;;;;;;;18.83;12.05;;;8.30;87.70;;;;;;4979461;28;20445;-87
2022/03/12 01:46:29;;;;;;;23.70;12.13;;;8.30;87.80;;;;;;4979307;28;20025;-87
2022/03/12 01:48:59;;;;;;;17.15;11.23;;;8.30;87.80;;;;;;4996693;28;20139;-87
2022/03/12 01:51:26;;;;;;;17.98;11.35;;;8.30;87.80;;;;;;4996701;28;20073;-87
2022/03/12 01:53:53;;;;;;;20.90;12.07;;;8.30;87.90;;;;;;4979189;28;20026;-86
2022/03/12 01:56:19;;;;;;;21.55;11.98;;;8.30;87.90;;;;;;4979043;28;20114;-87
2022/03/12 01:58:47;;;;;;;19.10;11.52;;;8.30;88.00;;;;;;4979160;28;20065;-87
2022/03/12 02:01:14;;;;;;;19.38;11.82;;;8.30;88.10;;;;;;4979096;28;20023;-87
2022/03/12 02:03:40;;;;;;;17.90;11.95;;;8.30;88.10;;;;;;4996462;28;20022;-87
2022/03/12 02:06:06;;;;;;;19.73;11.00;;;8.20;88.10;;;;;;4979059;28;20077;-87
2022/03/12 02:08:32;;;;;;;17.95;11.43;;;8.20;88.10;;;;;;4979124;28;20089;-87
2022/03/12 02:10:58;;;;;;;16.67;11.60;;;8.20;88.20;;;;;;4979114;28;20418;-86
2022/03/12 02:13:25;;;;;;;22.65;11.85;;;8.20;88.30;;;;;;4978751;28;20513;-86
2022/03/12 02:16:09;;;;;;;18.00;11.40;;;8.20;88.30;;;;;;4978884;28;20355;-87
2022/03/12 02:18:36;;;;;;;15.52;10.73;;;8.20;88.30;;;;;;4978623;28;20464;-87
2022/03/12 02:21:03;;;;;;;18.33;11.40;;;8.20;89.10;;;;;;4978922;28;20030;-87
2022/03/12 02:23:28;;;;;;;19.38;11.30;;;8.20;88.40;;;;;;4996641;28;20100;-87
2022/03/12 02:26:02;;;;;;;16.00;10.88;;;8.20;88.50;;;;;;4996255;28;20058;-86
2022/03/12 02:28:29;;;;;;;16.92;11.15;;;8.20;88.50;;;;;;4978698;28;20022;-87
2022/03/12 02:30:55;;;;;;;18.15;11.05;;;8.20;88.60;;;;;;4995951;28;20034;-87
2022/03/12 02:33:28;;;;;;;17.85;11.80;;;8.10;88.60;;;;;;4978537;28;20026;-87
2022/03/12 02:35:56;;;;;;;17.50;11.55;;;8.10;88.60;;;;;;4978431;28;20026;-87
2022/03/12 02:38:23;;;;;;;19.45;11.30;;;8.10;88.80;;;;;;4978218;28;20033;-87
2022/03/12 02:40:50;;;;;;;20.65;11.18;;;8.10;88.90;;;;;;4995677;28;20033;-87
2022/03/12 02:43:26;;;;;;;20.35;12.25;;;8.10;88.80;;;;;;4978221;28;20026;-87
2022/03/12 02:45:57;;;;;;;20.58;11.35;;;8.10;88.80;;;;;;4978325;28;20109;-87
2022/03/12 02:48:25;;;;;;;19.42;11.30;;;8.10;89.00;;;;;;4978130;28;20030;-87
2022/03/12 02:50:52;;;;;;;18.58;11.70;;;8.10;89.00;;;;;;4978144;28;20029;-87
2022/03/12 02:53:18;;;;;;;19.55;11.38;;;8.10;89.20;;;;;;4978073;28;20026;-87
2022/03/12 02:55:45;;;;;;;18.38;11.60;;;8.10;89.20;;;;;;4978080;28;20033;-87
2022/03/12 02:58:13;;;;;;;18.40;11.80;;;8.10;89.20;;;;;;4978053;28;20037;-87
2022/03/12 03:00:39;;;;;;;18.80;10.98;;;8.00;89.10;;;;;;4978046;28;20030;-87
2022/03/12 03:03:06;;;;;;;17.95;12.15;;;8.10;89.20;;;;;;4977788;28;20036;-87
2022/03/12 03:05:47;;;;;;;16.60;11.38;;;8.00;89.10;;;;;;4977897;28;20449;-87
2022/03/12 03:08:18;;;;;;;17.50;11.30;;;8.00;89.30;;;;;;4977860;28;20029;-87
2022/03/12 03:10:47;;;;;;;16.73;11.18;;;8.10;89.40;;;;;;4977316;28;20482;-87
2022/03/12 03:13:16;;;;;;;19.75;11.50;;;8.00;89.30;;;;;;4977544;28;20049;-87
2022/03/12 03:15:49;;;;;;;18.42;11.35;;;8.00;89.30;;;;;;4995016;28;20390;-87
2022/03/12 03:18:20;;;;;;;17.10;12.05;;;8.00;89.30;;;;;;4994924;28;20019;-87
2022/03/12 03:20:46;;;;;;;17.67;10.57;;;8.00;89.50;;;;;;4977395;28;20069;-87
2022/03/12 03:23:13;;;;;;;18.40;11.43;;;8.00;89.70;;;;;;4977377;28;20066;-87
2022/03/12 03:25:39;;;;;;;16.90;11.30;;;8.00;89.70;;;;;;4977361;28;20027;-87
2022/03/12 03:28:05;;;;;;;20.10;11.55;;;8.00;89.80;;;;;;4977276;28;20026;-87
2022/03/12 03:30:36;;;;;;;17.50;11.18;;;7.90;89.90;;;;;;4977585;28;20038;-87
2022/03/12 03:33:09;;;;;;;16.45;11.27;;;8.00;90.00;;;;;;4977437;28;20034;-87
2022/03/12 03:35:36;;;;;;;16.92;11.00;;;8.00;90.00;;;;;;4977452;28;20027;-87
2022/03/12 03:38:02;;;;;;;19.13;11.48;;;8.00;90.00;;;;;;4977374;28;20030;-87
2022/03/12 03:40:27;;;;;;;17.70;11.07;;;7.90;90.00;;;;;;4977208;28;20033;-87
2022/03/12 03:42:53;;;;;;;17.05;10.55;;;7.90;90.10;;;;;;4977096;28;20390;-87
2022/03/12 03:45:26;;;;;;;16.15;10.95;;;7.90;90.10;;;;;;4977089;28;20027;-87
2022/03/12 03:47:52;;;;;;;19.08;11.25;;;7.90;90.10;;;;;;4994526;28;20022;-86
2022/03/12 03:50:24;;;;;;;16.40;10.68;;;7.90;90.10;;;;;;4977045;28;20030;-87
2022/03/12 03:52:51;;;;;;;20.15;11.30;;;7.90;90.10;;;;;;4977114;28;20039;-87
2022/03/12 03:55:16;;;;;;;20.10;11.10;;;7.90;90.10;;;;;;4976822;28;20041;-87
2022/03/12 03:57:42;;;;;;;16.83;11.38;;;7.90;90.20;;;;;;4976926;28;20022;-86
2022/03/12 04:00:09;;;;;;;16.83;11.43;;;7.90;90.20;;;;;;4976793;28;20035;-87
2022/03/12 04:02:35;;;;;;;14.65;10.27;;;7.90;90.20;;;;;;4976832;28;20045;-87
2022/03/12 04:05:00;;;;;;;15.25;11.15;;;7.90;90.20;;;;;;4976763;28;20116;-87
2022/03/12 04:07:26;;;;;;;16.63;10.50;;;7.90;90.20;;;;;;4994175;28;20514;-87
2022/03/12 04:09:52;;;;;;;15.75;10.90;;;7.90;90.20;;;;;;4976612;28;20118;-87
2022/03/12 04:12:18;;;;;;;18.98;11.35;;;7.90;90.20;;;;;;4994399;28;20023;-87
2022/03/12 04:14:44;;;;;;;15.82;10.48;;;7.90;90.30;;;;;;4994070;28;20034;-87
2022/03/12 04:17:12;;;;;;;16.95;10.55;;;7.90;90.30;;;;;;4976580;28;20080;-87
2022/03/12 04:19:39;;;;;;;18.83;11.27;;;7.90;90.30;;;;;;4976717;28;20047;-87
2022/03/12 04:22:07;;;;;;;15.10;11.10;;;7.90;90.30;;;;;;4976183;28;20030;-87
2022/03/12 04:24:35;;;;;;;24.17;10.75;;;7.90;90.40;;;;;;4994050;28;20022;-87
2022/03/12 04:27:02;;;;;;;18.10;10.95;;;7.90;90.30;;;;;;4976565;28;20022;-87
2022/03/12 04:29:27;;;;;;;17.83;10.82;;;7.90;90.40;;;;;;4976470;28;20026;-87
2022/03/12 04:31:53;;;;;;;14.82;10.63;;;7.80;90.40;;;;;;4976492;28;20036;-87
2022/03/12 04:34:19;;;;;;;14.82;10.73;;;7.80;90.40;;;;;;4993806;28;20474;-87
2022/03/12 04:36:46;;;;;;;16.80;11.18;;;7.80;90.40;;;;;;4976519;28;20375;-87
2022/03/12 04:39:12;;;;;;;17.83;10.98;;;7.80;90.40;;;;;;4976525;28;20053;-87
2022/03/12 04:41:40;;;;;;;19.08;11.30;;;7.90;90.50;;;;;;4976620;28;20022;-87
2022/03/12 04:44:07;;;;;;;17.60;11.07;;;7.90;90.50;;;;;;4976259;28;20051;-87
2022/03/12 04:46:35;;;;;;;14.60;10.77;;;7.80;90.50;;;;;;4976421;28;20030;-87
2022/03/12 04:49:02;;;;;;;15.60;10.57;;;7.80;90.50;;;;;;4976916;28;20034;-87
2022/03/12 04:51:29;;;;;;;17.10;10.80;;;7.80;90.50;;;;;;4993863;28;20023;-87
2022/03/12 04:54:01;;;;;;;17.90;11.43;;;7.80;90.50;;;;;;4994133;28;20026;-87
2022/03/12 04:56:27;;;;;;;15.02;10.60;;;7.80;90.60;;;;;;4976306;28;20027;-87
2022/03/12 04:58:53;;;;;;;16.92;10.80;;;7.80;90.60;;;;;;4976244;28;20177;-86
2022/03/12 05:01:25;;;;;;;15.65;10.57;;;7.80;90.60;;;;;;4993626;28;20022;-87
2022/03/12 05:03:52;;;;;;;17.75;11.18;;;7.80;90.60;;;;;;4993752;28;20073;-87
2022/03/12 05:06:19;;;;;;;19.83;12.40;;;7.80;90.60;;;;;;4993594;28;20027;-87
2022/03/12 05:08:45;;;;;;;16.23;10.90;;;7.80;90.70;;;;;;4976378;28;20034;-87
2022/03/12 05:11:11;;;;;;;16.70;10.88;;;7.80;90.70;;;;;;4976035;28;20029;-87
2022/03/12 05:13:37;;;;;;;16.00;10.60;;;7.80;90.70;;;;;;4976086;28;20022;-87
2022/03/12 05:16:06;;;;;;;16.75;10.68;;;7.80;90.70;;;;;;4976096;28;20023;-86
2022/03/12 05:18:33;;;;;;;16.23;10.82;;;7.80;90.70;;;;;;4993238;28;20411;-86
2022/03/12 05:20:59;;;;;;;17.48;11.82;;;7.70;90.70;;;;;;4975937;28;20037;-87
2022/03/12 05:23:27;;;;;;;16.55;10.90;;;7.70;90.70;;;;;;4993333;28;20502;-87
2022/03/12 05:25:53;;;;;;;17.58;11.45;;;7.70;90.80;;;;;;4993714;28;20041;-87
2022/03/12 05:28:32;;;;;;;17.48;11.07;;;7.70;90.80;;;;;;4975930;28;20386;-87
2022/03/12 05:31:00;;;;;;;15.52;10.45;;;7.80;90.90;;;;;;4976068;28;20035;-86
2022/03/12 05:33:27;;;;;;;17.05;10.93;;;7.70;90.90;;;;;;4976170;28;20057;-87
2022/03/12 05:35:54;;;;;;;19.58;11.68;;;7.70;90.90;;;;;;4979432;28;20078;-87
2022/03/12 05:38:24;;;;;;;17.05;11.27;;;7.70;90.90;;;;;;4979421;28;20479;-87
2022/03/12 05:40:51;;;;;;;16.98;11.13;;;7.70;90.90;;;;;;4979415;28;20113;-86
2022/03/12 05:43:18;;;;;;;17.95;11.52;;;7.70;90.90;;;;;;4979270;28;20042;-87
2022/03/12 05:45:51;;;;;;;19.58;11.82;;;7.70;90.90;;;;;;4996722;28;20382;-86
2022/03/12 05:48:19;;;;;;;15.88;10.98;;;7.70;91.00;;;;;;4979066;28;20482;-87
2022/03/12 05:50:48;;;;;;;17.38;11.23;;;7.70;91.00;;;;;;4996581;28;20479;-87
2022/03/12 05:53:16;;;;;;;19.13;11.82;;;7.70;91.00;;;;;;4996655;28;20049;-87
2022/03/12 05:55:42;;;;;;;15.63;10.65;;;7.70;91.00;;;;;;4979248;28;20038;-87
2022/03/12 05:58:10;;;;;;;17.88;11.45;;;7.70;91.00;;;;;;4979083;28;20022;-87
2022/03/12 06:00:36;;;;;;;15.45;10.88;;;7.70;91.00;;;;;;4978986;28;20073;-86
2022/03/12 06:03:03;;;;;;;19.52;11.30;;;7.70;91.00;;;;;;4979060;28;20030;-87
2022/03/12 06:05:29;;;;;;;16.92;11.23;;;7.70;91.00;;;;;;4979001;28;20486;-87
2022/03/12 06:07:55;;;;;;;17.80;11.55;;;7.70;91.10;;;;;;4996253;28;20438;-87
2022/03/12 06:10:28;;;;;;;17.45;10.65;;;7.60;91.10;;;;;;4978740;28;20030;-87
2022/03/12 06:12:56;;;;;;;20.27;11.23;;;7.70;91.10;;;;;;4996467;28;20026;-87
2022/03/12 06:15:24;;;;;;;19.98;11.63;;;7.60;91.10;;;;;;4978571;28;20022;-87
2022/03/12 06:17:51;;;;;;;18.52;11.73;;;7.60;91.10;;;;;;4996120;28;20513;-87
2022/03/12 06:20:17;;;;;;;17.38;11.50;;;7.60;91.10;;;;;;4978409;28;20042;-87
2022/03/12 06:22:44;;;;;;;17.83;11.02;;;7.70;91.20;;;;;;4978425;28;20058;-87
2022/03/12 06:25:13;;;;;;;17.02;11.18;;;7.60;91.10;;;;;;4978511;28;20030;-86
2022/03/12 06:27:42;;;;;;;15.75;10.15;;;7.60;91.10;;;;;;4978405;28;20041;-86
2022/03/12 06:30:10;;;;;;;17.02;10.77;;;7.60;91.10;;;;;;4978370;28;20052;-87
2022/03/12 06:32:38;;;;;;;18.73;11.50;;;7.60;91.10;;;;;;4978439;28;20062;-87
2022/03/12 06:35:06;;;;;;;16.35;10.82;;;7.60;91.20;;;;;;4995792;28;20018;-87
2022/03/12 06:37:32;;;;;;;16.63;10.90;;;7.70;91.10;;;;;;4978270;28;20022;-87
2022/03/12 06:39:59;;;;;;;16.48;10.88;;;7.70;91.20;;;;;;4978181;28;20057;-87
2022/03/12 06:42:25;;;;;;;16.60;11.10;;;7.70;91.10;;;;;;4978209;28;20022;-87
2022/03/12 06:44:55;;;;;;;16.65;11.10;;;7.70;91.10;;;;;;4977883;28;20026;-87
2022/03/12 06:47:24;;;;;;;16.52;10.70;;;7.70;91.00;;;;;;4977875;28;20113;-86
2022/03/12 06:49:50;;;;;;;18.30;10.98;;;7.80;91.00;;;;;;4995815;28;20042;-87
2022/03/12 06:52:16;;;;;;;14.82;10.23;;;7.80;90.90;;;;;;4995479;28;20419;-87
2022/03/12 06:54:41;;;;;;;15.63;11.30;;;7.90;90.90;;;;;;4978089;28;20033;-87
2022/03/12 06:57:07;;;;;;;16.25;10.88;;;7.90;90.80;;;;;;4995410;28;20030;-87
2022/03/12 06:59:33;;;;;;;16.17;11.13;;;8.00;90.80;;;;;;4977917;28;20081;-87
2022/03/12 07:01:58;;;;;;;16.70;10.80;;;8.00;90.70;;;;;;4977781;28;20069;-87
2022/03/12 07:04:24;;;;;;;19.65;10.88;;;8.10;90.60;;;;;;4978103;28;20117;-87
2022/03/12 07:06:51;;;;;;;19.15;10.73;;;8.10;90.60;;;;;;4977719;28;20018;-87
2022/03/12 07:09:17;;;;;;;17.55;10.98;;;8.20;90.60;;;;;;4977888;28;20457;-87
2022/03/12 07:11:43;;;;;;;17.48;10.60;;;8.20;90.50;;;;;;4977701;28;20394;-87
2022/03/12 07:14:09;;;;;;;15.68;10.27;;;8.20;90.50;;;;;;4995395;28;20025;-87
2022/03/12 07:16:35;;;;;;;17.08;10.95;;;8.30;90.40;;;;;;4995049;28;20085;-87
2022/03/12 07:19:01;;;;;;;19.45;11.15;;;8.30;90.40;;;;;;4977353;28;20040;-87
2022/03/12 07:21:28;;;;;;;18.67;11.48;;;8.30;90.40;;;;;;4977696;28;20113;-87
2022/03/12 07:23:54;;;;;;;16.65;11.20;;;8.40;90.40;;;;;;4994912;28;20502;-86
2022/03/12 07:26:20;;;;;;;17.08;10.77;;;8.40;90.30;;;;;;4977486;28;20033;-87
2022/03/12 07:28:47;;;;;;;16.27;10.98;;;8.40;90.30;;;;;;4994683;28;20038;-87
2022/03/12 07:31:14;;;;;;;17.35;10.80;;;8.50;90.30;;;;;;4977375;28;20019;-87
2022/03/12 07:33:40;;;;;;;18.50;11.45;;;8.50;90.20;;;;;;4994675;28;20026;-86
2022/03/12 07:36:05;;;;;;;16.98;11.15;;;8.60;90.20;;;;;;4994675;28;20048;-86
2022/03/12 07:38:32;;;;;;;19.45;11.75;;;8.70;90.10;;;;;;4994557;28;20040;-87
2022/03/12 07:40:58;;;;;;;17.88;11.63;;;8.80;90.00;;;;;;4977402;28;20077;-87
2022/03/12 07:43:24;;;;;;;14.70;10.65;;;8.80;90.00;;;;;;4977052;28;20022;-85
2022/03/12 07:45:50;;;;;;;17.88;11.48;;;8.80;89.80;;;;;;4977047;28;20550;-86
2022/03/12 07:48:16;;;;;;;17.25;11.75;;;8.90;89.70;;;;;;4994409;28;20036;-86
2022/03/12 07:50:44;;;;;;;20.75;12.68;;;8.90;89.70;;;;;;4976925;28;20065;-86
2022/03/12 07:53:11;;;;;;;16.38;11.32;;;9.00;89.60;;;;;;4994440;28;20023;-86
2022/03/12 07:55:37;;;;;;;16.83;12.18;;;9.00;89.40;;;;;;4976811;28;20023;-86
2022/03/12 07:58:03;;;;;;;15.05;10.40;;;9.00;89.40;;;;;;4976543;28;20134;-86
2022/03/12 08:00:30;;;;;;;16.92;11.48;;;9.10;89.30;;;;;;4976873;28;20027;-86
2022/03/12 08:02:56;;;;;;;17.95;11.32;;;9.10;89.20;;;;;;4977205;28;20129;-86
2022/03/12 08:05:23;;;;;;;16.40;10.85;;;9.20;89.20;;;;;;4994186;28;20071;-86
2022/03/12 08:07:50;;;;;;;16.75;11.70;;;9.20;89.10;;;;;;4976536;28;20386;-86
2022/03/12 08:10:16;;;;;;;18.45;11.50;;;9.30;89.00;;;;;;4994351;28;20026;-86
2022/03/12 08:12:44;;;;;;;18.77;11.05;;;9.30;89.00;;;;;;4976789;28;20034;-86
2022/03/12 08:15:11;;;;;;;19.00;12.27;;;9.30;88.80;;;;;;4976373;28;20030;-85
2022/03/12 08:17:37;;;;;;;16.63;11.10;;;9.40;88.70;;;;;;4993946;28;20030;-86
2022/03/12 08:20:07;;;;;;;20.85;11.65;;;9.40;88.60;;;;;;4993545;28;20520;-86
2022/03/12 08:22:38;;;;;;;17.90;11.55;;;9.50;88.60;;;;;;4976409;28;20447;-86
2022/03/12 08:25:04;;;;;;;18.42;10.85;;;9.50;88.50;;;;;;4993985;28;20042;-85
2022/03/12 08:27:30;;;;;;;17.27;11.73;;;9.50;89.30;;;;;;4976769;28;20367;-86
2022/03/12 08:29:56;;;;;;;16.88;10.82;;;9.50;88.50;;;;;;4976417;28;20027;-85
2022/03/12 08:32:22;;;;;;;15.93;10.88;;;9.50;88.50;;;;;;4976533;28;20022;-86
2022/03/12 08:34:48;;;;;;;15.50;10.57;;;9.50;88.40;;;;;;4976576;28;20036;-86
2022/03/12 08:37:13;;;;;;;17.90;11.20;;;9.60;88.30;;;;;;4976441;28;20109;-86
2022/03/12 08:39:40;;;;;;;16.38;11.05;;;9.60;88.20;;;;;;4976346;28;20080;-85
2022/03/12 08:42:06;;;;;;;17.92;11.45;;;9.70;88.20;;;;;;4993693;28;20052;-85
2022/03/12 08:44:32;;;;;;;16.85;10.73;;;9.70;88.20;;;;;;4994238;28;20030;-86
2022/03/12 08:46:57;;;;;;;14.60;10.13;;;9.70;88.10;;;;;;4993698;28;20521;-86
2022/03/12 08:49:24;;;;;;;15.20;10.15;;;9.80;88.00;;;;;;4993900;28;20101;-85
2022/03/12 08:51:49;;;;;;;19.35;10.77;;;9.80;87.90;;;;;;4993706;28;20513;-86
2022/03/12 08:54:15;;;;;;;17.08;10.25;;;9.90;87.80;;;;;;4976371;28;20026;-86
2022/03/12 08:56:41;;;;;;;17.77;11.27;;;10.00;87.60;;;;;;4993572;28;20058;-85
2022/03/12 08:59:07;;;;;;;16.95;11.05;;;10.00;87.40;;;;;;4976212;28;20026;-85
2022/03/12 09:01:33;;;;;;;18.10;11.27;;;10.10;87.40;;;;;;4993569;28;20081;-86
2022/03/12 09:04:00;;;;;;;23.10;12.20;;;10.10;87.20;;;;;;4976015;28;20030;-85
2022/03/12 09:06:27;;;;;;;18.42;10.30;;;10.10;87.30;;;;;;4976033;28;20026;-85
2022/03/12 09:08:53;;;;;;;20.42;11.10;;;9.90;87.40;;;;;;4994335;28;20073;-85
2022/03/12 09:11:20;;;;;;;15.68;10.38;;;9.80;87.70;;;;;;4997419;28;20101;-87
2022/03/12 09:13:46;;;;;;;16.63;10.60;;;9.70;87.90;;;;;;4997395;28;20470;-85
2022/03/12 09:16:14;;;;;;;16.67;10.93;;;9.60;88.10;;;;;;4997363;28;20030;-85
2022/03/12 09:18:42;;;;;;;17.48;10.77;;;9.60;88.40;;;;;;4996970;28;20034;-85
2022/03/12 09:21:08;;;;;;;17.77;11.10;;;9.50;88.70;;;;;;4979887;28;20038;-85
2022/03/12 09:23:34;;;;;;;16.23;10.82;;;9.40;88.80;;;;;;4979476;28;20081;-86
2022/03/12 09:26:00;;;;;;;16.92;10.80;;;9.30;89.00;;;;;;4997040;28;20053;-85
2022/03/12 09:28:26;;;;;;;18.40;11.07;;;9.30;89.20;;;;;;4979429;28;20054;-85
2022/03/12 09:30:53;;;;;;;19.33;11.27;;;9.20;89.40;;;;;;4979288;28;20022;-85
2022/03/12 09:33:23;;;;;;;17.95;11.93;;;9.10;89.60;;;;;;4979369;28;20030;-85
2022/03/12 09:35:50;;;;;;;15.25;10.10;;;9.10;89.80;;;;;;4979451;28;20383;-86
2022/03/12 09:38:17;;;;;;;16.92;10.90;;;9.10;90.00;;;;;;4979134;28;20501;-85
2022/03/12 09:40:43;;;;;;;18.30;11.63;;;9.00;90.00;;;;;;4996798;28;20022;-85
2022/03/12 09:43:10;;;;;;;19.30;11.77;;;9.00;90.10;;;;;;4979227;28;20053;-85
2022/03/12 09:45:36;;;;;;;16.02;10.90;;;9.00;90.10;;;;;;4996639;28;20474;-85
2022/03/12 09:48:02;;;;;;;21.98;12.15;;;8.90;90.20;;;;;;4996562;28;20106;-85
2022/03/12 09:50:28;;;;;;;16.95;11.25;;;8.90;90.20;;;;;;4979087;28;20053;-85
2022/03/12 09:52:54;;;;;;;20.33;12.18;;;9.00;90.20;;;;;;4979165;28;20026;-85
2022/03/12 09:55:20;;;;;;;18.23;11.68;;;9.00;90.40;;;;;;4996539;28;20032;-87
2022/03/12 09:57:48;;;;;;;24.20;13.55;;;9.00;90.40;;;;;;4978939;28;20030;-85
2022/03/12 10:00:15;;;;;;;25.38;13.07;;;9.20;90.60;;;;;;4979039;28;20030;-85
2022/03/12 10:02:41;;;;;;;24.92;14.45;;;9.20;90.30;;;;;;4978841;28;20138;-85
2022/03/12 10:05:11;;;;;;;23.40;13.93;;;9.30;90.30;;;;;;4996568;28;20072;-85
2022/03/12 10:07:38;;;;;;;27.45;12.65;;;9.30;90.40;;;;;;4978906;28;20092;-85
2022/03/12 10:10:04;;;;;;;23.05;12.80;;;9.30;90.40;;;;;;4978811;28;20037;-86
2022/03/12 10:12:30;;;;;;;19.85;13.55;;;9.30;90.30;;;;;;4996229;28;20027;-85
2022/03/12 10:14:55;;;;;;;23.17;12.85;;;9.30;90.30;;;;;;4978715;28;20609;-85
2022/03/12 10:17:21;;;;;;;18.98;12.70;;;9.30;90.30;;;;;;4996455;28;20037;-85
2022/03/12 10:19:48;;;;;;;20.25;12.52;;;9.30;90.20;;;;;;4977893;28;20049;-85
2022/03/12 10:22:14;;;;;;;20.73;12.95;;;9.30;90.20;;;;;;4977873;28;20037;-85
2022/03/12 10:24:40;;;;;;;18.85;11.90;;;9.40;90.30;;;;;;4978549;28;20065;-86
2022/03/12 10:27:06;;;;;;;18.33;11.57;;;9.50;90.30;;;;;;4978867;28;20363;-86
2022/03/12 10:29:34;;;;;;;18.13;11.77;;;9.50;90.30;;;;;;4978587;28;20088;-85
2022/03/12 10:32:20;;;;;;;20.25;11.65;;;9.50;90.20;;;;;;4978486;28;20398;-85
2022/03/12 10:34:52;;;;;;;19.30;11.15;;;9.50;90.20;;;;;;4996141;28;20109;-86
2022/03/12 10:37:20;;;;;;;20.42;10.80;;;9.60;90.20;;;;;;4978323;28;20398;-85
2022/03/12 10:39:46;;;;;;;20.20;12.05;;;9.70;90.20;;;;;;4978332;28;20049;-86
2022/03/12 10:42:13;;;;;;;18.67;11.18;;;9.80;90.20;;;;;;4995669;28;20026;-86
2022/03/12 10:44:40;;;;;;;20.90;11.82;;;9.90;90.10;;;;;;4978213;28;20026;-86
2022/03/12 10:47:23;;;;;;;17.48;11.10;;;10.00;90.00;;;;;;4978180;28;20466;-86
2022/03/12 10:50:02;;;;;;;19.48;11.38;;;10.10;90.00;;;;;;4977978;28;20027;-86
2022/03/12 10:52:29;;;;;;;17.20;10.68;;;10.20;89.90;;;;;;4977873;28;20037;-86
2022/03/12 10:54:55;;;;;;;17.60;10.65;;;10.30;90.00;;;;;;4978034;28;20026;-85
2022/03/12 10:57:21;;;;;;;16.27;9.75;;;10.30;89.90;;;;;;4977890;28;20470;-85
2022/03/12 10:59:53;;;;;;;16.55;9.90;;;10.40;89.70;;;;;;4977934;28;20508;-85
2022/03/12 11:02:19;;;;;;;18.02;10.00;;;10.40;89.50;;;;;;4977733;28;20026;-85
2022/03/12 11:04:44;;;;;;;19.80;11.00;;;10.50;89.60;;;;;;4995266;28;20055;-86
2022/03/12 11:07:29;;;;;;;17.92;10.35;;;10.50;89.80;;;;;;4995101;28;20066;-85
2022/03/12 11:09:55;;;;;;;14.73;10.02;;;10.50;90.00;;;;;;4995215;28;20149;-85
2022/03/12 11:12:33;;;;;;;16.92;10.25;;;10.60;90.00;;;;;;4977616;28;20035;-85
2022/03/12 11:15:07;;;;;;;16.05;9.90;;;10.60;90.20;;;;;;4995395;28;20351;-85
2022/03/12 11:17:43;;;;;;;15.55;9.20;;;10.60;90.10;;;;;;4995359;28;20401;-86
2022/03/12 11:20:28;;;;;;;17.42;9.63;;;10.60;90.40;;;;;;4977247;28;20446;-85
2022/03/12 11:23:17;;;;;;;18.05;10.05;;;10.60;90.10;;;;;;4977399;28;20070;-86
2022/03/12 11:26:06;;;;;;;18.05;9.40;;;11.00;92.90;;;;;;4977383;28;20042;-84
2022/03/12 11:28:36;;;;;;;17.40;10.15;;;11.60;92.20;;;;;;4977355;28;20022;-85
2022/03/12 11:31:04;;;;;;;20.77;9.63;;;11.70;91.40;;;;;;4994638;28;20482;-85
2022/03/12 11:33:29;;;;;;;20.17;10.20;;;11.60;90.90;;;;;;4976928;28;20105;-86
2022/03/12 11:36:04;;;;;;;16.48;10.65;;;11.50;90.70;;;;;;4994853;28;20126;-85
2022/03/12 11:38:29;;;;;;;;;;;11.40;90.80;;;;;;4994923;28;20032;-86
2022/03/12 11:41:06;;;;;;;13.65;9.23;;;11.30;90.60;;;;;;4994509;28;20446;-86
2022/03/12 11:43:38;;;;;;;14.45;8.82;;;11.30;90.70;;;;;;4994461;28;20027;-86
2022/03/12 11:46:06;;;;;;;15.88;9.43;;;11.30;90.70;;;;;;4977065;28;20394;-85
2022/03/12 11:48:34;;;;;;;17.80;9.43;;;11.20;90.60;;;;;;4994774;28;20059;-85
2022/03/12 11:51:18;;;;;;;12.18;8.80;;;11.20;90.60;;;;;;4976870;28;20042;-85
2022/03/12 11:53:45;;;;;;;15.00;9.02;;;11.20;90.60;;;;;;4994406;28;20038;-85
2022/03/12 11:56:10;;;;;;;17.80;9.18;;;11.10;90.60;;;;;;4976870;28;20064;-85
2022/03/12 11:58:36;;;;;;;14.65;8.95;;;11.10;90.70;;;;;;4976931;28;20057;-84
2022/03/12 12:01:02;;;;;;;15.55;8.90;;;11.00;90.70;;;;;;4976840;28;20034;-85
2022/03/12 12:03:29;;;;;;;14.85;8.70;;;11.00;90.80;;;;;;4976718;28;20022;-85
2022/03/12 12:05:56;;;;;;;16.13;7.93;;;10.90;90.80;;;;;;4994129;28;20385;-85
2022/03/12 12:08:22;;;;;;;16.45;8.40;;;10.90;90.80;;;;;;4976753;28;20117;-85
2022/03/12 12:10:51;;;;;;;14.35;8.15;;;10.90;90.80;;;;;;4976716;28;20037;-86
2022/03/12 12:13:18;;;;;;;13.13;7.82;;;11.00;90.90;;;;;;4994346;28;20466;-85
2022/03/12 12:15:44;;;;;;;13.18;8.13;;;11.00;90.80;;;;;;4976556;28;20372;-85
2022/03/12 12:18:13;;;;;;;12.15;7.88;;;11.10;90.80;;;;;;4993855;28;20030;-85
2022/03/12 12:20:40;;;;;;;11.48;8.02;;;11.10;90.70;;;;;;4976432;28;20050;-85
2022/03/12 12:23:12;;;;;;;10.75;7.15;;;11.10;90.70;;;;;;4976413;28;20376;-85
2022/03/12 12:25:39;;;;;;;13.02;8.05;;;11.10;90.70;;;;;;4994009;28;20554;-85
2022/03/12 12:28:20;;;;;;;12.13;7.57;;;11.20;90.60;;;;;;4976486;28;20029;-85
2022/03/12 12:30:48;;;;;;;12.48;7.95;;;11.20;90.90;;;;;;4976420;28;20471;-85
2022/03/12 12:33:26;;;;;;;13.30;8.32;;;11.20;90.60;;;;;;4976367;28;20081;-85
2022/03/12 12:36:12;;;;;;;9.98;7.15;;;11.20;90.60;;;;;;4976336;28;20031;-85
2022/03/12 12:38:40;;;;;;;13.32;7.47;;;11.20;90.50;;;;;;4976384;28;20031;-85